Terminal Aerodrome Forecast
Issued by NWS

Home | Current Version | Previous Version | Text Only | Print | Product List | Glossary On
Versions: 1 2 3 4 5 6 7 8 9 10 11 12 13 14
818
FTUS42 TJSJ 102343
TAFJSJ
TAF
TJSJ 102343Z 1100/1124 10008KT P6SM FEW025 FEW040
     FM111300 09012KT P6SM FEW030 FEW050
     FM112300 10008KT P6SM FEW025 FEW040=

USA.gov is the U.S. government's official web portal to all federal, state and local government web resources and services.